California — WDA4337 — position and weather

sailwx.info

Track history (hours):
 
Tides and Currents Weather Stations Pressure Air Temp Water Temp Dewpoint Dewpoint Depression Visibility Wind Speed Wind Dir Waves Ship Positions

California

Owner: SAN FRANCISCO BAR PILOTS, SAN FRANCISCO, CA. More information available from US FCC via Universal Licensing System and Coast Guard Vessel Documentation Center.

Last reported at 2017-Oct-23 06:00 UTC. Time now 2017-Oct-23 06:07 UTC.
Position N 37°45' W 122°41'.

Length 32 m; draft 3 m.

Type: Pilot. MMSI: 366808340.

Date/timePositionNaut miles runAvg speedWind from/ knotsBaromVisibWave heightAir tempDewpointWater temp
2017-Oct-23 06:00N 37°45' W 122°41'1 2.5
2017-Oct-23 05:30N 37°44' W 122°39'1 2.1
2017-Oct-23 04:57N 37°45' W 122°41'1 1.3
2017-Oct-23 04:30N 37°45' W 122°41'1 1.7
2017-Oct-23 04:00N 37°46' W 122°41'1 1.8
2017-Oct-23 03:30N 37°46' W 122°42'1 1.8
2017-Oct-23 02:59N 37°45' W 122°41'1 1.5
2017-Oct-23 02:30N 37°46' W 122°41'1 1.5
2017-Oct-23 02:00N 37°46' W 122°42'1 2.4
2017-Oct-23 01:30N 37°45' W 122°42'1 2.0
2017-Oct-23 01:00N 37°45' W 122°40'1 2.4
2017-Oct-23 00:30N 37°45' W 122°39'1 1.8
2017-Oct-23 00:00N 37°45' W 122°40'0 0.3
2017-Oct-22 23:29N 37°45' W 122°40'3 6.7
2017-Oct-22 23:00N 37°46' W 122°36'4 7.8
2017-Oct-22 22:30N 37°48' W 122°32'2 4.0
2017-Oct-22 22:00N 37°48' W 122°29'1 2.7
2017-Oct-22 21:30N 37°48' W 122°31'1 2.0
2017-Oct-22 21:00N 37°48' W 122°32'2 3.2
2017-Oct-22 20:30N 37°48' W 122°34'4 7.8
2017-Oct-22 20:00N 37°47' W 122°39'2 4.1
2017-Oct-22 19:30N 37°47' W 122°42'1 2.3
2017-Oct-22 19:00N 37°46' W 122°41'1 2.6
2017-Oct-22 18:29N 37°45' W 122°40'2 4.0
2017-Oct-22 17:56N 37°44' W 122°42'1 2.1
2017-Oct-22 17:30N 37°45' W 122°42'1 2.5
2017-Oct-22 17:00N 37°45' W 122°40'1 1.9
2017-Oct-22 16:30N 37°46' W 122°41'4 7.8
2017-Oct-22 16:00N 37°47' W 122°36'510.3
2017-Oct-22 15:31N 37°49' W 122°30'510.3
2017-Oct-22 15:01N 37°48' W 122°24'0 0.0
2017-Oct-22 14:31N 37°48' W 122°24'0 0.0
2017-Oct-22 14:01N 37°48' W 122°24'0 0.0
2017-Oct-22 13:30N 37°48' W 122°24'0 0.0
2017-Oct-22 13:00N 37°48' W 122°24'0 0.0
2017-Oct-22 12:31N 37°48' W 122°24'  
2017-Oct-20 01:34N 37°48' W 122°24'0 0.0
2017-Oct-20 01:31N 37°48' W 122°24'0 0.0
2017-Oct-20 01:01N 37°48' W 122°24'0 0.0
2017-Oct-19 22:16N 37°48' W 122°24'0 1.2
2017-Oct-19 22:01N 37°48' W 122°23'3 5.7
2017-Oct-19 21:31N 37°46' W 122°21'3 5.8
2017-Oct-19 21:00N 37°48' W 122°24'0 0.0
2017-Oct-19 20:31N 37°48' W 122°24'0 0.0
2017-Oct-19 20:00N 37°48' W 122°24'0 0.0
2017-Oct-19 19:30N 37°48' W 122°24'0 0.0
2017-Oct-19 19:01N 37°48' W 122°24'1 2.7
2017-Oct-19 18:30N 37°48' W 122°22'1 2.7
2017-Oct-19 18:00N 37°48' W 122°24'0 0.0
2017-Oct-19 17:30N 37°48' W 122°24'0 0.0
2017-Oct-19 17:00N 37°48' W 122°24'4 7.5
2017-Oct-19 16:31N 37°48' W 122°19'3 5.6
2017-Oct-19 16:01N 37°48' W 122°23'4 7.1
2017-Oct-19 15:30N 37°44' W 122°21'4 7.8
2017-Oct-19 15:01N 37°48' W 122°22'2 3.4
2017-Oct-19 14:31N 37°48' W 122°24'0 0.0
2017-Oct-19 05:08N 37°48' W 122°24'0 2.3
2017-Oct-19 05:00N 37°48' W 122°24'713.4
2017-Oct-19 04:30N 37°47' W 122°32'1 2.5
2017-Oct-19 04:00N 37°47' W 122°34'611.6
2017-Oct-19 03:30N 37°49' W 122°27'3 5.1
2017-Oct-19 03:00N 37°48' W 122°24'0 0.0
2017-Oct-19 02:30N 37°48' W 122°24'0 0.0
2017-Oct-19 02:00N 37°48' W 122°24'  
2017-Oct-16 15:59N 37°48' W 122°24'1 2.2
2017-Oct-16 15:30N 37°49' W 122°25'612.6
2017-Oct-16 15:00N 37°48' W 122°32'7 7.1
2017-Oct-16 14:00N 37°47' W 122°41'0 0.9
2017-Oct-16 13:30N 37°47' W 122°41'0 0.4
2017-Oct-16 13:01N 37°46' W 122°41'0 0.9
2017-Oct-16 12:31N 37°47' W 122°41'1 2.2
2017-Oct-16 12:00N 37°47' W 122°42'1 1.7
2017-Oct-16 11:31N 37°47' W 122°41'1 2.2
2017-Oct-16 11:00N 37°46' W 122°41'1 2.6
2017-Oct-16 10:30N 37°45' W 122°42'1 1.9
2017-Oct-16 10:00N 37°45' W 122°42'1 1.8
2017-Oct-16 09:30N 37°46' W 122°41'1 1.5
2017-Oct-16 09:00N 37°47' W 122°41'1 1.1
2017-Oct-16 08:31N 37°47' W 122°42'1 2.6
2017-Oct-16 08:01N 37°46' W 122°41'1 1.6
2017-Oct-16 07:30N 37°46' W 122°41'1 2.3
2017-Oct-16 07:00N 37°46' W 122°40'1 2.6
2017-Oct-16 06:30N 37°46' W 122°41'0 0.5
2017-Oct-16 06:00N 37°46' W 122°41'0 0.4
2017-Oct-16 05:30N 37°46' W 122°41'1 2.8
2017-Oct-16 05:01N 37°46' W 122°39'0 0.1
2017-Oct-16 04:30N 37°46' W 122°39'0 0.4
2017-Oct-16 04:00N 37°46' W 122°40'0 0.4
2017-Oct-16 03:30N 37°46' W 122°40'1 2.4
2017-Oct-16 03:00N 37°45' W 122°40'2 3.5
2017-Oct-16 02:30N 37°45' W 122°42'2 4.8
2017-Oct-16 02:01N 37°46' W 122°40'0 0.8
2017-Oct-16 01:30N 37°46' W 122°40'0 0.4
2017-Oct-16 01:00N 37°46' W 122°40'0 0.4
2017-Oct-16 00:31N 37°46' W 122°40'1 1.5
2017-Oct-16 00:00N 37°46' W 122°41'1 2.0
2017-Oct-15 23:30N 37°45' W 122°40'1 1.3
2017-Oct-15 23:00N 37°45' W 122°40'1 1.7
2017-Oct-15 22:30N 37°45' W 122°40'2 3.3
2017-Oct-15 22:00N 37°45' W 122°43'0 0.7
2017-Oct-15 21:31N 37°45' W 122°43'1 1.9
2017-Oct-15 21:01N 37°45' W 122°41'1 2.2
2017-Oct-15 20:26N 37°46' W 122°42'1 2.9
2017-Oct-15 19:59N 37°46' W 122°41'0 0.6
2017-Oct-15 19:30N 37°46' W 122°41'0 0.9
2017-Oct-15 19:00N 37°47' W 122°41'2 3.7
2017-Oct-15 18:30N 37°46' W 122°39'1 1.9
2017-Oct-15 18:00N 37°46' W 122°40'2 3.8
2017-Oct-15 17:30N 37°46' W 122°42'1 2.5
2017-Oct-15 16:57N 37°44' W 122°42'1 1.8
2017-Oct-15 16:22N 37°43' W 122°42'1 1.2
2017-Oct-15 15:51N 37°44' W 122°42'0 1.3
2017-Oct-15 15:30N 37°44' W 122°41'2 3.2
2017-Oct-15 14:55N 37°45' W 122°40'1 1.4
2017-Oct-15 14:00N 37°46' W 122°41'1 1.2
2017-Oct-15 13:29N 37°46' W 122°40'1 1.4
2017-Oct-15 13:00N 37°46' W 122°40'1 2.2
2017-Oct-15 12:30N 37°45' W 122°41'1 1.9
2017-Oct-15 11:59N 37°44' W 122°41'0 0.8
2017-Oct-15 11:28N 37°44' W 122°41'1 1.4
2017-Oct-15 11:00N 37°45' W 122°41'2 3.2
2017-Oct-15 10:27N 37°44' W 122°43'1 2.9
2017-Oct-15 10:00N 37°44' W 122°41'1 1.1
2017-Oct-15 09:30N 37°45' W 122°42'1 0.6
2017-Oct-15 08:15N 37°45' W 122°43'1 2.4
2017-Oct-15 07:55N 37°45' W 122°44'2 3.3
2017-Oct-15 07:22N 37°45' W 122°41'1 4.0
2017-Oct-15 07:00N 37°45' W 122°40'1 3.0
2017-Oct-15 06:30N 37°46' W 122°40'2 3.2
2017-Oct-15 05:59N 37°47' W 122°42'1 1.2
2017-Oct-15 05:30N 37°46' W 122°42'1 2.3
2017-Oct-15 05:00N 37°45' W 122°41'1 2.4
2017-Oct-15 04:31N 37°45' W 122°40'2 3.7
2017-Oct-15 04:00N 37°45' W 122°42'1 1.6
2017-Oct-15 03:31N 37°45' W 122°43'1 2.3
2017-Oct-15 03:01N 37°44' W 122°42'1 2.1
2017-Oct-15 02:30N 37°45' W 122°42'1 2.6
2017-Oct-15 02:00N 37°46' W 122°41'0 0.6
2017-Oct-15 01:30N 37°46' W 122°41'1 1.3
2017-Oct-15 00:59N 37°46' W 122°42'2 3.1
2017-Oct-15 00:29N 37°45' W 122°41'1 2.1
2017-Oct-15 00:00N 37°44' W 122°41'2 3.6
2017-Oct-14 23:30N 37°46' W 122°42'1 2.3
2017-Oct-14 23:00N 37°46' W 122°40'5 9.3
2017-Oct-14 22:31N 37°46' W 122°35'2 3.2
2017-Oct-14 22:00N 37°46' W 122°36'2 3.4
2017-Oct-14 21:30N 37°45' W 122°38'2 4.3
2017-Oct-14 21:00N 37°45' W 122°41'1 1.4
2017-Oct-14 20:27N 37°45' W 122°40'1 2.7
2017-Oct-14 19:59N 37°45' W 122°42'2 3.5
2017-Oct-14 19:30N 37°46' W 122°40'1 1.8
2017-Oct-14 19:00N 37°47' W 122°41'1 2.5
2017-Oct-14 18:30N 37°46' W 122°39'0 0.9
2017-Oct-14 17:58N 37°46' W 122°39'1 2.4
2017-Oct-14 17:29N 37°46' W 122°40'0 0.2
2017-Oct-14 17:00N 37°46' W 122°40'2 3.3
2017-Oct-14 16:30N 37°47' W 122°38'1 2.9
2017-Oct-14 16:01N 37°47' W 122°37'1 2.5
2017-Oct-14 15:30N 37°46' W 122°38'2 3.6
2017-Oct-14 14:58N 37°46' W 122°40'0 0.5
2017-Oct-14 14:31N 37°46' W 122°41'1 2.1
2017-Oct-14 14:00N 37°46' W 122°39'1 2.9
2017-Oct-14 13:30N 37°47' W 122°41'0 0.0
2017-Oct-14 12:59N 37°47' W 122°41'1 2.4
2017-Oct-14 12:30N 37°47' W 122°42'1 1.8
2017-Oct-14 12:00N 37°46' W 122°41'1 2.4
2017-Oct-14 11:30N 37°46' W 122°40'0 0.9
2017-Oct-14 11:00N 37°45' W 122°40'1 1.9
2017-Oct-14 10:28N 37°45' W 122°41'1 1.9
2017-Oct-14 10:00N 37°46' W 122°42'1 1.7
2017-Oct-14 09:30N 37°46' W 122°43'2 2.9
2017-Oct-14 08:58N 37°46' W 122°41'1 1.7
2017-Oct-14 08:30N 37°46' W 122°40'2 3.8
2017-Oct-14 07:59N 37°47' W 122°43'2 3.5
2017-Oct-14 07:30N 37°46' W 122°41'2 3.4
2017-Oct-14 07:00N 37°44' W 122°40'1 2.5
2017-Oct-14 06:30N 37°45' W 122°41'1 2.9
2017-Oct-14 05:59N 37°45' W 122°40'1 2.5
2017-Oct-14 05:29N 37°46' W 122°40'1 1.6
2017-Oct-14 05:00N 37°46' W 122°40'1 1.7
2017-Oct-14 04:30N 37°46' W 122°42'1 2.3
2017-Oct-14 04:00N 37°46' W 122°40'1 1.8
2017-Oct-14 03:30N 37°45' W 122°40'2 3.8
2017-Oct-14 03:01N 37°46' W 122°41'1 2.2
2017-Oct-14 02:31N 37°46' W 122°40'1 2.9
2017-Oct-14 02:00N 37°46' W 122°38'1 1.7
2017-Oct-14 01:31N 37°46' W 122°39'0 0.8
2017-Oct-14 01:00N 37°45' W 122°40'1 2.0
2017-Oct-14 00:30N 37°44' W 122°40'0 0.6
2017-Oct-14 00:00N 37°44' W 122°40'1 2.8
2017-Oct-13 23:30N 37°46' W 122°40'1 1.4
2017-Oct-13 23:01N 37°45' W 122°39'1 2.9
2017-Oct-13 22:31N 37°46' W 122°40'1 1.2
2017-Oct-13 22:00N 37°46' W 122°40'1 2.5
2017-Oct-13 21:30N 37°45' W 122°41'0 0.9
2017-Oct-13 21:01N 37°44' W 122°41'1 2.3
2017-Oct-13 20:30N 37°45' W 122°40'2 4.1
2017-Oct-13 20:00N 37°44' W 122°42'1 1.8
2017-Oct-13 19:30N 37°45' W 122°43'1 2.5
2017-Oct-13 19:00N 37°45' W 122°42'1 2.4
2017-Oct-13 18:30N 37°45' W 122°40'1 2.4
2017-Oct-13 18:00N 37°46' W 122°41'1 2.8
2017-Oct-13 17:30N 37°47' W 122°43'1 2.6
2017-Oct-13 17:00N 37°46' W 122°41'1 2.6
2017-Oct-13 16:30N 37°46' W 122°40'1 1.7
2017-Oct-13 16:00N 37°46' W 122°40'2 4.4
2017-Oct-13 15:30N 37°47' W 122°37'1 1.6
2017-Oct-13 15:00N 37°47' W 122°38'2 3.5
2017-Oct-13 14:30N 37°47' W 122°40'1 1.3
2017-Oct-13 13:59N 37°46' W 122°41'1 2.5
2017-Oct-13 13:30N 37°46' W 122°40'2 3.7
2017-Oct-13 13:00N 37°47' W 122°41'1 1.0
2017-Oct-13 12:30N 37°47' W 122°41'1 1.1
2017-Oct-13 12:00N 37°46' W 122°40'1 2.2
2017-Oct-13 11:31N 37°45' W 122°40'1 1.2
2017-Oct-13 11:01N 37°45' W 122°41'1 1.0
2017-Oct-13 10:26N 37°45' W 122°41'0 0.7
2017-Oct-13 10:00N 37°45' W 122°41'2 3.7
2017-Oct-13 09:30N 37°46' W 122°41'1 1.7
2017-Oct-13 09:00N 37°46' W 122°41'1 1.3
2017-Oct-13 08:29N 37°45' W 122°42'0 0.4
2017-Oct-13 07:48N 37°46' W 122°42'1 2.7
2017-Oct-13 07:15N 37°46' W 122°40'0 0.9
2017-Oct-13 07:00N 37°46' W 122°40'2 3.1
2017-Oct-13 06:30N 37°47' W 122°42'  
Track history (hours):
 
Tides and Currents Weather Stations Pressure Air Temp Water Temp Dewpoint Dewpoint Depression Visibility Wind Speed Wind Dir Waves Ship Positions

California

Owner: SAN FRANCISCO BAR PILOTS, SAN FRANCISCO, CA. More information available from US FCC via Universal Licensing System and Coast Guard Vessel Documentation Center.

Last reported at 2017-Oct-23 06:00 UTC. Time now 2017-Oct-23 06:07 UTC.
Position N 37°45' W 122°41'.

Length 32 m; draft 3 m.

Type: Pilot. MMSI: 366808340.

Date/timePositionNaut miles runAvg speedWind from/ knotsBaromVisibWave heightAir tempDewpointWater temp
2017-Oct-23 06:00N 37°45' W 122°41'1 2.5
2017-Oct-23 05:30N 37°44' W 122°39'1 2.1
2017-Oct-23 04:57N 37°45' W 122°41'1 1.3
2017-Oct-23 04:30N 37°45' W 122°41'1 1.7
2017-Oct-23 04:00N 37°46' W 122°41'1 1.8
2017-Oct-23 03:30N 37°46' W 122°42'1 1.8
2017-Oct-23 02:59N 37°45' W 122°41'1 1.5
2017-Oct-23 02:30N 37°46' W 122°41'1 1.5
2017-Oct-23 02:00N 37°46' W 122°42'1 2.4
2017-Oct-23 01:30N 37°45' W 122°42'1 2.0
2017-Oct-23 01:00N 37°45' W 122°40'1 2.4
2017-Oct-23 00:30N 37°45' W 122°39'1 1.8
2017-Oct-23 00:00N 37°45' W 122°40'0 0.3
2017-Oct-22 23:29N 37°45' W 122°40'3 6.7
2017-Oct-22 23:00N 37°46' W 122°36'4 7.8
2017-Oct-22 22:30N 37°48' W 122°32'2 4.0
2017-Oct-22 22:00N 37°48' W 122°29'1 2.7
2017-Oct-22 21:30N 37°48' W 122°31'1 2.0
2017-Oct-22 21:00N 37°48' W 122°32'2 3.2
2017-Oct-22 20:30N 37°48' W 122°34'4 7.8
2017-Oct-22 20:00N 37°47' W 122°39'2 4.1
2017-Oct-22 19:30N 37°47' W 122°42'1 2.3
2017-Oct-22 19:00N 37°46' W 122°41'1 2.6
2017-Oct-22 18:29N 37°45' W 122°40'2 4.0
2017-Oct-22 17:56N 37°44' W 122°42'1 2.1
2017-Oct-22 17:30N 37°45' W 122°42'1 2.5
2017-Oct-22 17:00N 37°45' W 122°40'1 1.9
2017-Oct-22 16:30N 37°46' W 122°41'4 7.8
2017-Oct-22 16:00N 37°47' W 122°36'510.3
2017-Oct-22 15:31N 37°49' W 122°30'510.3
2017-Oct-22 15:01N 37°48' W 122°24'0 0.0
2017-Oct-22 14:31N 37°48' W 122°24'0 0.0
2017-Oct-22 14:01N 37°48' W 122°24'0 0.0
2017-Oct-22 13:30N 37°48' W 122°24'0 0.0
2017-Oct-22 13:00N 37°48' W 122°24'0 0.0
2017-Oct-22 12:31N 37°48' W 122°24'  
2017-Oct-20 01:34N 37°48' W 122°24'0 0.0
2017-Oct-20 01:31N 37°48' W 122°24'0 0.0
2017-Oct-20 01:01N 37°48' W 122°24'0 0.0
2017-Oct-19 22:16N 37°48' W 122°24'0 1.2
2017-Oct-19 22:01N 37°48' W 122°23'3 5.7
2017-Oct-19 21:31N 37°46' W 122°21'3 5.8
2017-Oct-19 21:00N 37°48' W 122°24'0 0.0
2017-Oct-19 20:31N 37°48' W 122°24'0 0.0
2017-Oct-19 20:00N 37°48' W 122°24'0 0.0
2017-Oct-19 19:30N 37°48' W 122°24'0 0.0
2017-Oct-19 19:01N 37°48' W 122°24'1 2.7
2017-Oct-19 18:30N 37°48' W 122°22'1 2.7
2017-Oct-19 18:00N 37°48' W 122°24'0 0.0
2017-Oct-19 17:30N 37°48' W 122°24'0 0.0
2017-Oct-19 17:00N 37°48' W 122°24'4 7.5
2017-Oct-19 16:31N 37°48' W 122°19'3 5.6
2017-Oct-19 16:01N 37°48' W 122°23'4 7.1
2017-Oct-19 15:30N 37°44' W 122°21'4 7.8
2017-Oct-19 15:01N 37°48' W 122°22'2 3.4
2017-Oct-19 14:31N 37°48' W 122°24'0 0.0
2017-Oct-19 05:08N 37°48' W 122°24'0 2.3
2017-Oct-19 05:00N 37°48' W 122°24'713.4
2017-Oct-19 04:30N 37°47' W 122°32'1 2.5
2017-Oct-19 04:00N 37°47' W 122°34'611.6
2017-Oct-19 03:30N 37°49' W 122°27'3 5.1
2017-Oct-19 03:00N 37°48' W 122°24'0 0.0
2017-Oct-19 02:30N 37°48' W 122°24'0 0.0
2017-Oct-19 02:00N 37°48' W 122°24'  
2017-Oct-16 15:59N 37°48' W 122°24'1 2.2
2017-Oct-16 15:30N 37°49' W 122°25'612.6
2017-Oct-16 15:00N 37°48' W 122°32'7 7.1
2017-Oct-16 14:00N 37°47' W 122°41'0 0.9
2017-Oct-16 13:30N 37°47' W 122°41'0 0.4
2017-Oct-16 13:01N 37°46' W 122°41'0 0.9
2017-Oct-16 12:31N 37°47' W 122°41'1 2.2
2017-Oct-16 12:00N 37°47' W 122°42'1 1.7
2017-Oct-16 11:31N 37°47' W 122°41'1 2.2
2017-Oct-16 11:00N 37°46' W 122°41'1 2.6
2017-Oct-16 10:30N 37°45' W 122°42'1 1.9
2017-Oct-16 10:00N 37°45' W 122°42'1 1.8
2017-Oct-16 09:30N 37°46' W 122°41'1 1.5
2017-Oct-16 09:00N 37°47' W 122°41'1 1.1
2017-Oct-16 08:31N 37°47' W 122°42'1 2.6
2017-Oct-16 08:01N 37°46' W 122°41'1 1.6
2017-Oct-16 07:30N 37°46' W 122°41'1 2.3
2017-Oct-16 07:00N 37°46' W 122°40'1 2.6
2017-Oct-16 06:30N 37°46' W 122°41'0 0.5
2017-Oct-16 06:00N 37°46' W 122°41'0 0.4
2017-Oct-16 05:30N 37°46' W 122°41'1 2.8
2017-Oct-16 05:01N 37°46' W 122°39'0 0.1
2017-Oct-16 04:30N 37°46' W 122°39'0 0.4
2017-Oct-16 04:00N 37°46' W 122°40'0 0.4
2017-Oct-16 03:30N 37°46' W 122°40'1 2.4
2017-Oct-16 03:00N 37°45' W 122°40'2 3.5
2017-Oct-16 02:30N 37°45' W 122°42'2 4.8
2017-Oct-16 02:01N 37°46' W 122°40'0 0.8
2017-Oct-16 01:30N 37°46' W 122°40'0 0.4
2017-Oct-16 01:00N 37°46' W 122°40'0 0.4
2017-Oct-16 00:31N 37°46' W 122°40'1 1.5
2017-Oct-16 00:00N 37°46' W 122°41'1 2.0
2017-Oct-15 23:30N 37°45' W 122°40'1 1.3
2017-Oct-15 23:00N 37°45' W 122°40'1 1.7
2017-Oct-15 22:30N 37°45' W 122°40'2 3.3
2017-Oct-15 22:00N 37°45' W 122°43'0 0.7
2017-Oct-15 21:31N 37°45' W 122°43'1 1.9
2017-Oct-15 21:01N 37°45' W 122°41'1 2.2
2017-Oct-15 20:26N 37°46' W 122°42'1 2.9
2017-Oct-15 19:59N 37°46' W 122°41'0 0.6
2017-Oct-15 19:30N 37°46' W 122°41'0 0.9
2017-Oct-15 19:00N 37°47' W 122°41'2 3.7
2017-Oct-15 18:30N 37°46' W 122°39'1 1.9
2017-Oct-15 18:00N 37°46' W 122°40'2 3.8
2017-Oct-15 17:30N 37°46' W 122°42'1 2.5
2017-Oct-15 16:57N 37°44' W 122°42'1 1.8
2017-Oct-15 16:22N 37°43' W 122°42'1 1.2
2017-Oct-15 15:51N 37°44' W 122°42'0 1.3
2017-Oct-15 15:30N 37°44' W 122°41'2 3.2
2017-Oct-15 14:55N 37°45' W 122°40'1 1.4
2017-Oct-15 14:00N 37°46' W 122°41'1 1.2
2017-Oct-15 13:29N 37°46' W 122°40'1 1.4
2017-Oct-15 13:00N 37°46' W 122°40'1 2.2
2017-Oct-15 12:30N 37°45' W 122°41'1 1.9
2017-Oct-15 11:59N 37°44' W 122°41'0 0.8
2017-Oct-15 11:28N 37°44' W 122°41'1 1.4
2017-Oct-15 11:00N 37°45' W 122°41'2 3.2
2017-Oct-15 10:27N 37°44' W 122°43'1 2.9
2017-Oct-15 10:00N 37°44' W 122°41'1 1.1
2017-Oct-15 09:30N 37°45' W 122°42'1 0.6
2017-Oct-15 08:15N 37°45' W 122°43'1 2.4
2017-Oct-15 07:55N 37°45' W 122°44'2 3.3
2017-Oct-15 07:22N 37°45' W 122°41'1 4.0
2017-Oct-15 07:00N 37°45' W 122°40'1 3.0
2017-Oct-15 06:30N 37°46' W 122°40'2 3.2
2017-Oct-15 05:59N 37°47' W 122°42'1 1.2
2017-Oct-15 05:30N 37°46' W 122°42'1 2.3
2017-Oct-15 05:00N 37°45' W 122°41'1 2.4
2017-Oct-15 04:31N 37°45' W 122°40'2 3.7
2017-Oct-15 04:00N 37°45' W 122°42'1 1.6
2017-Oct-15 03:31N 37°45' W 122°43'1 2.3
2017-Oct-15 03:01N 37°44' W 122°42'1 2.1
2017-Oct-15 02:30N 37°45' W 122°42'1 2.6
2017-Oct-15 02:00N 37°46' W 122°41'0 0.6
2017-Oct-15 01:30N 37°46' W 122°41'1 1.3
2017-Oct-15 00:59N 37°46' W 122°42'2 3.1
2017-Oct-15 00:29N 37°45' W 122°41'1 2.1
2017-Oct-15 00:00N 37°44' W 122°41'2 3.6
2017-Oct-14 23:30N 37°46' W 122°42'1 2.3
2017-Oct-14 23:00N 37°46' W 122°40'5 9.3
2017-Oct-14 22:31N 37°46' W 122°35'2 3.2
2017-Oct-14 22:00N 37°46' W 122°36'2 3.4
2017-Oct-14 21:30N 37°45' W 122°38'2 4.3
2017-Oct-14 21:00N 37°45' W 122°41'1 1.4
2017-Oct-14 20:27N 37°45' W 122°40'1 2.7
2017-Oct-14 19:59N 37°45' W 122°42'2 3.5
2017-Oct-14 19:30N 37°46' W 122°40'1 1.8
2017-Oct-14 19:00N 37°47' W 122°41'1 2.5
2017-Oct-14 18:30N 37°46' W 122°39'0 0.9
2017-Oct-14 17:58N 37°46' W 122°39'1 2.4
2017-Oct-14 17:29N 37°46' W 122°40'0 0.2
2017-Oct-14 17:00N 37°46' W 122°40'2 3.3
2017-Oct-14 16:30N 37°47' W 122°38'1 2.9
2017-Oct-14 16:01N 37°47' W 122°37'1 2.5
2017-Oct-14 15:30N 37°46' W 122°38'2 3.6
2017-Oct-14 14:58N 37°46' W 122°40'0 0.5
2017-Oct-14 14:31N 37°46' W 122°41'1 2.1
2017-Oct-14 14:00N 37°46' W 122°39'1 2.9
2017-Oct-14 13:30N 37°47' W 122°41'0 0.0
2017-Oct-14 12:59N 37°47' W 122°41'1 2.4
2017-Oct-14 12:30N 37°47' W 122°42'1 1.8
2017-Oct-14 12:00N 37°46' W 122°41'1 2.4
2017-Oct-14 11:30N 37°46' W 122°40'0 0.9
2017-Oct-14 11:00N 37°45' W 122°40'1 1.9
2017-Oct-14 10:28N 37°45' W 122°41'1 1.9
2017-Oct-14 10:00N 37°46' W 122°42'1 1.7
2017-Oct-14 09:30N 37°46' W 122°43'2 2.9
2017-Oct-14 08:58N 37°46' W 122°41'1 1.7
2017-Oct-14 08:30N 37°46' W 122°40'2 3.8
2017-Oct-14 07:59N 37°47' W 122°43'2 3.5
2017-Oct-14 07:30N 37°46' W 122°41'2 3.4
2017-Oct-14 07:00N 37°44' W 122°40'1 2.5
2017-Oct-14 06:30N 37°45' W 122°41'1 2.9
2017-Oct-14 05:59N 37°45' W 122°40'1 2.5
2017-Oct-14 05:29N 37°46' W 122°40'1 1.6
2017-Oct-14 05:00N 37°46' W 122°40'1 1.7
2017-Oct-14 04:30N 37°46' W 122°42'1 2.3
2017-Oct-14 04:00N 37°46' W 122°40'1 1.8
2017-Oct-14 03:30N 37°45' W 122°40'2 3.8
2017-Oct-14 03:01N 37°46' W 122°41'1 2.2
2017-Oct-14 02:31N 37°46' W 122°40'1 2.9
2017-Oct-14 02:00N 37°46' W 122°38'1 1.7
2017-Oct-14 01:31N 37°46' W 122°39'0 0.8
2017-Oct-14 01:00N 37°45' W 122°40'1 2.0
2017-Oct-14 00:30N 37°44' W 122°40'0 0.6
2017-Oct-14 00:00N 37°44' W 122°40'1 2.8
2017-Oct-13 23:30N 37°46' W 122°40'1 1.4
2017-Oct-13 23:01N 37°45' W 122°39'1 2.9
2017-Oct-13 22:31N 37°46' W 122°40'1 1.2
2017-Oct-13 22:00N 37°46' W 122°40'1 2.5
2017-Oct-13 21:30N 37°45' W 122°41'0 0.9
2017-Oct-13 21:01N 37°44' W 122°41'1 2.3
2017-Oct-13 20:30N 37°45' W 122°40'2 4.1
2017-Oct-13 20:00N 37°44' W 122°42'1 1.8
2017-Oct-13 19:30N 37°45' W 122°43'1 2.5
2017-Oct-13 19:00N 37°45' W 122°42'1 2.4
2017-Oct-13 18:30N 37°45' W 122°40'1 2.4
2017-Oct-13 18:00N 37°46' W 122°41'1 2.8
2017-Oct-13 17:30N 37°47' W 122°43'1 2.6
2017-Oct-13 17:00N 37°46' W 122°41'1 2.6
2017-Oct-13 16:30N 37°46' W 122°40'1 1.7
2017-Oct-13 16:00N 37°46' W 122°40'2 4.4
2017-Oct-13 15:30N 37°47' W 122°37'1 1.6
2017-Oct-13 15:00N 37°47' W 122°38'2 3.5
2017-Oct-13 14:30N 37°47' W 122°40'1 1.3
2017-Oct-13 13:59N 37°46' W 122°41'1 2.5
2017-Oct-13 13:30N 37°46' W 122°40'2 3.7
2017-Oct-13 13:00N 37°47' W 122°41'1 1.0
2017-Oct-13 12:30N 37°47' W 122°41'1 1.1
2017-Oct-13 12:00N 37°46' W 122°40'1 2.2
2017-Oct-13 11:31N 37°45' W 122°40'1 1.2
2017-Oct-13 11:01N 37°45' W 122°41'1 1.0
2017-Oct-13 10:26N 37°45' W 122°41'0 0.7
2017-Oct-13 10:00N 37°45' W 122°41'2 3.7
2017-Oct-13 09:30N 37°46' W 122°41'1 1.7
2017-Oct-13 09:00N 37°46' W 122°41'1 1.3
2017-Oct-13 08:29N 37°45' W 122°42'0 0.4
2017-Oct-13 07:48N 37°46' W 122°42'1 2.7
2017-Oct-13 07:15N 37°46' W 122°40'0 0.9
2017-Oct-13 07:00N 37°46' W 122°40'2 3.1
2017-Oct-13 06:30N 37°47' W 122°42'  

Dump ship's entire track history